Time;durP1;ratioP1;P1;durP2;ratioP2;P2;SDS_P1;SDS_P2;PMS_P1;PMS_P2;Temp;Humidity;BMP_temperature;BMP_pressure;BME280_temperature;BME280_humidity;BME280_pressure;Samples;Min_cycle;Max_cycle;Signal;HPM_P1;HPM_P2
2022/03/01 00:02:18;;;;;;;12.85;8.25;;;102.50;2227.20;;;;;;5063679;28;20487;-75
2022/03/01 00:04:43;;;;;;;14.57;9.00;;;102.50;2227.20;;;;;;5057206;28;20617;-75
2022/03/01 00:07:15;;;;;;;17.02;10.48;;;102.50;2227.20;;;;;;5063985;28;20036;-75
2022/03/01 00:09:47;;;;;;;19.73;11.70;;;102.60;2227.20;;;;;;5061192;28;20518;-75
2022/03/01 00:12:12;;;;;;;16.00;10.13;;;102.60;2227.20;;;;;;5065259;28;20063;-75
2022/03/01 00:14:41;;;;;;;23.80;13.43;;;102.60;2227.20;;;;;;5054994;28;20037;-74
2022/03/01 00:17:07;;;;;;;17.00;10.98;;;102.60;2227.20;;;;;;5062244;28;20021;-74
2022/03/01 00:19:32;;;;;;;17.60;11.57;;;102.60;2227.20;;;;;;5064123;28;20518;-75
2022/03/01 00:21:58;;;;;;;14.55;9.18;;;102.60;2227.20;;;;;;5062198;28;20024;-75
2022/03/01 00:24:30;;;;;;;16.92;9.07;;;102.60;2227.20;;;;;;5064670;28;20120;-74
2022/03/01 00:26:56;;;;;;;17.30;10.98;;;102.50;2227.20;;;;;;5064924;28;20039;-74
2022/03/01 00:29:21;;;;;;;18.77;10.77;;;102.50;2227.20;;;;;;5062398;28;20487;-74
2022/03/01 00:31:47;;;;;;;20.83;10.73;;;102.50;2227.20;;;;;;5064825;28;20504;-75
2022/03/01 00:34:13;;;;;;;16.13;10.15;;;102.50;2227.20;;;;;;5063922;28;20048;-75
2022/03/01 00:36:39;;;;;;;16.30;11.57;;;102.40;2227.20;;;;;;5063017;28;20044;-75
2022/03/01 00:39:08;;;;;;;19.15;11.30;;;102.40;2227.20;;;;;;5063836;28;20462;-74
2022/03/01 00:41:37;;;;;;;18.65;12.05;;;77.70;2227.20;;;;;;5063315;28;20029;-74
2022/03/01 00:44:06;;;;;;;19.48;12.48;;;77.70;2227.20;;;;;;5063700;28;20032;-74
2022/03/01 00:46:39;;;;;;;12.88;8.80;;;77.60;2227.20;;;;;;5063991;28;20041;-74
2022/03/01 00:49:05;;;;;;;11.43;7.25;;;77.50;2227.20;;;;;;5060401;28;20074;-74
2022/03/01 00:51:31;;;;;;;14.43;7.63;;;77.40;2227.20;;;;;;5064781;28;20678;-74
2022/03/01 00:53:59;;;;;;;11.75;7.78;;;77.40;2227.20;;;;;;5061662;28;20025;-74
2022/03/01 00:56:25;;;;;;;15.07;11.80;;;77.30;2227.20;;;;;;5061645;28;20029;-74
2022/03/01 00:58:51;;;;;;;16.15;10.80;;;77.30;2227.20;;;;;;5060986;28;20706;-74
2022/03/01 01:01:17;;;;;;;19.50;11.07;;;77.30;2227.20;;;;;;5060765;28;20021;-74
2022/03/01 01:03:43;;;;;;;15.95;9.60;;;77.30;2227.20;;;;;;5063095;28;20028;-74
2022/03/01 01:06:09;;;;;;;17.52;11.80;;;77.30;2227.20;;;;;;5060174;28;20488;-74
2022/03/01 01:08:35;;;;;;;17.60;9.82;;;77.30;2227.20;;;;;;5061881;28;20029;-75
2022/03/01 01:11:00;;;;;;;14.05;11.30;;;77.30;2227.20;;;;;;5061217;28;20100;-74
2022/03/01 01:13:26;;;;;;;16.65;9.88;;;77.20;2227.20;;;;;;5065446;28;20056;-74
2022/03/01 01:15:52;;;;;;;24.55;14.10;;;77.20;2227.20;;;;;;5062254;28;20029;-74
2022/03/01 01:18:18;;;;;;;25.20;15.13;;;77.20;2227.20;;;;;;5066513;28;20395;-74
2022/03/01 01:20:43;;;;;;;24.30;12.60;;;77.20;2227.20;;;;;;5062161;28;20051;-75
2022/03/01 01:23:09;;;;;;;23.35;10.65;;;77.20;2227.20;;;;;;5064725;28;20040;-74
2022/03/01 01:25:35;;;;;;;19.42;10.98;;;77.10;2227.20;;;;;;5062052;28;20039;-74
2022/03/01 01:28:02;;;;;;;22.85;13.77;;;77.10;2227.20;;;;;;5063777;28;20028;-73
2022/03/01 01:30:33;;;;;;;20.80;9.38;;;77.10;2227.20;;;;;;5062604;28;20128;-74
2022/03/01 01:33:00;;;;;;;14.50;8.65;;;77.10;2227.20;;;;;;5060433;28;20029;-74
2022/03/01 01:35:28;;;;;;;17.48;7.95;;;77.10;2227.20;;;;;;5065348;28;20029;-74
2022/03/01 01:37:55;;;;;;;13.73;8.15;;;77.00;2227.20;;;;;;5057631;28;20049;-74
2022/03/01 01:40:23;;;;;;;13.95;7.07;;;76.90;2227.20;;;;;;5060676;28;20028;-74
2022/03/01 01:42:49;;;;;;;12.52;7.47;;;76.90;2227.20;;;;;;5062024;28;20025;-74
2022/03/01 01:45:15;;;;;;;14.48;7.03;;;76.80;2227.20;;;;;;5063027;28;20047;-74
2022/03/01 01:47:41;;;;;;;12.57;7.55;;;76.80;2227.20;;;;;;5060057;28;20079;-74
2022/03/01 01:50:11;;;;;;;11.85;7.80;;;52.00;2227.20;;;;;;5060655;28;20481;-74
2022/03/01 01:52:54;;;;;;;13.85;7.07;;;51.90;2227.20;;;;;;5056840;28;20053;-74
2022/03/01 01:55:20;;;;;;;14.48;7.97;;;51.90;2227.20;;;;;;5062805;28;20110;-74
2022/03/01 01:57:47;;;;;;;13.52;9.13;;;52.00;2227.20;;;;;;5062804;28;20048;-74
2022/03/01 02:00:13;;;;;;;17.98;7.55;;;52.00;2227.20;;;;;;5060797;28;20127;-73
2022/03/01 02:02:52;;;;;;;9.38;6.40;;;52.00;2227.20;;;;;;5061964;28;20020;-74
2022/03/01 02:05:21;;;;;;;11.60;7.05;;;52.00;2227.20;;;;;;5061371;28;20075;-73
2022/03/01 02:07:49;;;;;;;10.00;7.10;;;51.90;2227.20;;;;;;5060350;28;20040;-73
2022/03/01 02:10:23;;;;;;;12.32;7.45;;;51.80;2227.20;;;;;;5067075;28;20028;-74
2022/03/01 02:12:49;;;;;;;17.38;9.73;;;51.70;2227.20;;;;;;5059826;28;20021;-73
2022/03/01 02:15:15;;;;;;;11.88;8.35;;;51.70;2227.20;;;;;;5061971;28;20025;-73
2022/03/01 02:17:45;;;;;;;13.02;9.38;;;51.70;2227.20;;;;;;5061447;28;20016;-73
2022/03/01 02:20:22;;;;;;;15.68;9.82;;;51.60;2227.20;;;;;;5060383;28;20025;-73
2022/03/01 02:22:53;;;;;;;13.52;9.65;;;51.50;2227.20;;;;;;5057880;28;20380;-73
2022/03/01 02:25:19;;;;;;;16.10;9.82;;;51.40;2227.20;;;;;;5059627;28;20754;-74
2022/03/01 02:27:44;;;;;;;15.48;10.43;;;51.40;2227.20;;;;;;5060395;28;20032;-74
2022/03/01 02:30:11;;;;;;;17.10;10.48;;;51.30;2227.20;;;;;;5076518;28;20464;-74
2022/03/01 02:32:40;;;;;;;16.27;11.45;;;51.20;2227.20;;;;;;5065033;28;20487;-73
2022/03/01 02:35:08;;;;;;;15.25;10.98;;;51.20;2227.20;;;;;;5058577;28;20035;-73
2022/03/01 02:37:34;;;;;;;17.20;10.98;;;51.20;2227.20;;;;;;5062435;28;20055;-74
2022/03/01 02:40:00;;;;;;;21.45;12.00;;;51.20;2227.20;;;;;;5060116;28;20151;-73
2022/03/01 02:42:27;;;;;;;23.00;14.27;;;51.20;2227.20;;;;;;5061957;28;20021;-74
2022/03/01 02:44:53;;;;;;;18.73;12.32;;;26.50;2201.60;;;;;;5063007;28;20418;-73
2022/03/01 02:47:22;;;;;;;19.80;11.30;;;51.20;2227.20;;;;;;5061283;28;20472;-74
2022/03/01 02:49:48;;;;;;;18.23;10.15;;;26.50;2201.60;;;;;;5059272;28;20039;-73
2022/03/01 02:52:14;;;;;;;21.67;12.65;;;26.40;2201.60;;;;;;5060573;28;20110;-74
2022/03/01 02:54:40;;;;;;;15.63;11.65;;;26.40;2201.60;;;;;;5065959;28;20052;-74
2022/03/01 02:57:06;;;;;;;18.58;11.48;;;26.40;2201.60;;;;;;5066495;28;20033;-74
2022/03/01 02:59:33;;;;;;;17.42;10.45;;;26.40;2201.60;;;;;;5070087;28;20028;-74
2022/03/01 03:01:59;;;;;;;18.30;11.32;;;26.50;2201.60;;;;;;5073241;28;20047;-74
2022/03/01 03:04:25;;;;;;;21.58;12.85;;;26.50;2201.60;;;;;;5067676;28;20480;-74
2022/03/01 03:06:51;;;;;;;17.17;11.43;;;26.40;2201.60;;;;;;5065827;28;20464;-74
2022/03/01 03:09:17;;;;;;;17.67;11.43;;;26.40;2201.60;;;;;;5065597;28;20024;-76
2022/03/01 03:11:43;;;;;;;23.15;13.88;;;26.40;2201.60;;;;;;5063223;28;20029;-75
2022/03/01 03:14:09;;;;;;;19.55;11.90;;;26.40;2201.60;;;;;;5067309;28;20025;-75
2022/03/01 03:16:36;;;;;;;18.95;10.07;;;26.50;2201.60;;;;;;5065626;28;20029;-75
2022/03/01 03:19:02;;;;;;;17.65;11.05;;;26.40;2201.60;;;;;;5068182;28;20104;-75
2022/03/01 03:21:28;;;;;;;26.38;17.23;;;26.40;2201.60;;;;;;5069866;28;20028;-75
2022/03/01 03:23:53;;;;;;;30.65;17.27;;;26.30;2201.60;;;;;;5060850;28;20082;-75
2022/03/01 03:26:19;;;;;;;36.10;20.05;;;26.20;2201.60;;;;;;5067489;28;20070;-76
2022/03/01 03:28:45;;;;;;;43.83;21.55;;;26.10;2201.60;;;;;;5065321;28;20067;-75
2022/03/01 03:31:12;;;;;;;34.05;20.65;;;26.20;2201.60;;;;;;5062369;28;20537;-74
2022/03/01 03:33:39;;;;;;;47.90;23.13;;;26.20;2201.60;;;;;;5069307;28;20459;-75
2022/03/01 03:36:04;;;;;;;45.58;23.80;;;26.20;2201.60;;;;;;5063509;28;20078;-74
2022/03/01 03:38:30;;;;;;;76.10;23.50;;;26.30;2201.60;;;;;;5066549;28;20057;-74
2022/03/01 03:40:56;;;;;;;36.78;20.25;;;26.10;2201.60;;;;;;5063735;28;20595;-74
2022/03/01 03:43:25;;;;;;;33.42;18.90;;;26.00;2201.60;;;;;;5065016;28;20090;-74
2022/03/01 03:45:54;;;;;;;29.65;16.20;;;25.90;2201.60;;;;;;5063474;28;20025;-74
2022/03/01 03:48:20;;;;;;;50.35;19.90;;;25.90;2201.60;;;;;;5065476;28;20796;-75
2022/03/01 03:50:46;;;;;;;38.35;19.15;;;25.80;2201.60;;;;;;5061326;28;20112;-74
2022/03/01 03:53:13;;;;;;;56.75;20.35;;;25.80;2201.60;;;;;;5063768;28;20553;-74
2022/03/01 03:55:38;;;;;;;48.17;23.65;;;25.80;2201.60;;;;;;5062194;28;20029;-75
2022/03/01 03:58:04;;;;;;;67.93;26.70;;;25.90;1894.40;;;;;;5063207;28;20033;-75
2022/03/01 04:00:31;;;;;;;61.38;24.55;;;25.90;1843.20;;;;;;5066092;28;20506;-74
2022/03/01 04:02:57;;;;;;;74.15;28.05;;;26.00;2022.40;;;;;;5064298;28;20017;-74
2022/03/01 04:05:23;;;;;;;57.67;28.48;;;26.10;2022.40;;;;;;5067206;28;20025;-74
2022/03/01 04:07:49;;;;;;;81.03;32.88;;;26.10;2073.60;;;;;;5061270;28;20032;-74
2022/03/01 04:10:16;;;;;;;67.47;30.13;;;26.20;2099.20;;;;;;5064258;28;20025;-74
2022/03/01 04:12:42;;;;;;;73.30;29.33;;;26.30;2099.20;;;;;;5061648;28;20391;-74
2022/03/01 04:15:09;;;;;;;62.45;32.05;;;26.30;2073.60;;;;;;5065120;28;20017;-74
2022/03/01 04:17:39;;;;;;;54.72;32.15;;;26.30;2073.60;;;;;;5061451;28;20060;-74
2022/03/01 04:20:18;;;;;;;80.22;34.30;;;26.30;2099.20;;;;;;5063100;28;20115;-75
2022/03/01 04:22:47;;;;;;;70.53;35.88;;;26.40;2099.20;;;;;;5067485;28;20106;-74
2022/03/01 04:25:13;;;;;;;64.38;32.80;;;26.50;2124.80;;;;;;5062319;28;20044;-74
2022/03/01 04:27:39;;;;;;;75.55;36.85;;;51.20;2124.80;;;;;;5064516;28;20025;-74
2022/03/01 04:30:07;;;;;;;76.53;38.45;;;51.30;2048.00;;;;;;5058165;28;20044;-74
2022/03/01 04:32:34;;;;;;;73.35;39.72;;;51.30;2022.40;;;;;;5067466;28;20043;-75
2022/03/01 04:35:02;;;;;;;82.53;38.22;;;51.40;2073.60;;;;;;5065190;28;20399;-74
2022/03/01 04:37:28;;;;;;;85.43;42.28;;;51.40;2073.60;;;;;;5068477;28;20385;-73
2022/03/01 04:39:53;;;;;;;78.20;40.78;;;51.50;2073.60;;;;;;5061573;28;20040;-74
2022/03/01 04:42:19;;;;;;;75.47;40.25;;;51.60;2048.00;;;;;;5067087;28;20415;-74
2022/03/01 04:44:45;;;;;;;77.28;41.85;;;51.70;2073.60;;;;;;5064980;28;20021;-73
2022/03/01 04:47:11;;;;;;;74.47;43.15;;;51.70;2022.40;;;;;;5064413;28;20025;-74
2022/03/01 04:49:37;;;;;;;77.25;41.42;;;51.80;2022.40;;;;;;5060799;28;20021;-73
2022/03/01 04:52:09;;;;;;;77.05;39.65;;;51.90;1945.60;;;;;;5065439;28;20502;-74
2022/03/01 04:54:34;;;;;;;84.53;46.95;;;51.90;1945.60;;;;;;5061254;28;20090;-75
2022/03/01 04:57:00;;;;;;;91.45;50.55;;;51.90;1920.00;;;;;;5063864;28;20032;-73
2022/03/01 04:59:26;;;;;;;78.38;41.65;;;51.90;1945.60;;;;;;5063235;28;20476;-73
2022/03/01 05:01:52;;;;;;;80.38;42.53;;;52.00;1971.20;;;;;;5061097;28;20033;-75
2022/03/01 05:04:17;;;;;;;73.47;39.95;;;52.00;1894.40;;;;;;5065574;28;20055;-74
2022/03/01 05:06:43;;;;;;;71.82;40.00;;;51.90;1945.60;;;;;;5064531;28;20025;-74
2022/03/01 05:09:09;;;;;;;77.85;41.92;;;52.00;1971.20;;;;;;5059509;28;20074;-74
2022/03/01 05:11:36;;;;;;;71.22;39.60;;;52.00;1920.00;;;;;;5062154;28;20480;-74
2022/03/01 05:14:01;;;;;;;72.35;37.47;;;52.10;1920.00;;;;;;5061190;28;20016;-74
2022/03/01 05:16:30;;;;;;;62.83;33.25;;;52.10;1920.00;;;;;;5064099;28;21176;-74
2022/03/01 05:18:56;;;;;;;59.47;33.22;;;52.10;1971.20;;;;;;5065111;28;20012;-75
2022/03/01 05:21:21;;;;;;;54.25;30.90;;;52.00;1868.80;;;;;;5070316;28;20032;-75
2022/03/01 05:23:50;;;;;;;52.53;31.63;;;52.10;1971.20;;;;;;5071820;28;20031;-75
2022/03/01 05:26:16;;;;;;;49.20;30.40;;;52.10;1920.00;;;;;;5069672;28;20025;-73
2022/03/01 05:28:41;;;;;;;51.30;30.13;;;52.10;1843.20;;;;;;5071750;28;20492;-74
2022/03/01 05:31:07;;;;;;;50.10;30.63;;;52.10;1894.40;;;;;;5068895;28;20028;-75
2022/03/01 05:33:33;;;;;;;56.70;30.70;;;76.80;1843.20;;;;;;5071693;28;20056;-74
2022/03/01 05:35:59;;;;;;;52.22;30.90;;;76.80;2227.20;;;;;;5071267;28;20032;-75
2022/03/01 05:38:24;;;;;;;49.70;29.85;;;76.90;2227.20;;;;;;5070184;28;20048;-74
2022/03/01 05:40:50;;;;;;;48.17;26.35;;;77.00;2227.20;;;;;;5069555;28;20024;-75
2022/03/01 05:43:16;;;;;;;57.85;30.52;;;77.00;2227.20;;;;;;5070152;28;20356;-74
2022/03/01 05:45:42;;;;;;;46.90;26.77;;;77.00;2227.20;;;;;;5070882;28;20064;-74
2022/03/01 05:48:11;;;;;;;57.80;30.52;;;77.00;2227.20;;;;;;5086853;28;20024;-74
2022/03/01 05:50:42;;;;;;;49.13;28.58;;;76.90;2227.20;;;;;;5081055;28;20032;-75
2022/03/01 05:53:11;;;;;;;44.83;28.40;;;76.90;2227.20;;;;;;5071228;28;20510;-73
2022/03/01 05:55:37;;;;;;;42.58;24.95;;;77.00;2227.20;;;;;;5070293;28;20024;-74
2022/03/01 05:58:02;;;;;;;38.17;25.33;;;77.00;2227.20;;;;;;5069022;28;20081;-74
2022/03/01 06:00:28;;;;;;;38.08;28.48;;;77.00;2227.20;;;;;;5062104;28;20036;-75
2022/03/01 06:02:54;;;;;;;45.72;29.48;;;77.00;2227.20;;;;;;5074841;28;20016;-74
2022/03/01 06:05:20;;;;;;;41.05;25.45;;;77.10;2227.20;;;;;;5089843;28;20039;-74
2022/03/01 06:07:46;;;;;;;34.63;21.63;;;77.10;2227.20;;;;;;5057530;28;20033;-74
2022/03/01 06:10:12;;;;;;;33.92;20.35;;;77.10;2227.20;;;;;;5049597;28;20017;-74
2022/03/01 06:12:47;;;;;;;32.03;21.27;;;77.10;2227.20;;;;;;5050061;28;20028;-74
2022/03/01 06:15:13;;;;;;;30.25;19.65;;;77.20;2227.20;;;;;;5065893;28;20132;-74
2022/03/01 06:17:41;;;;;;;30.50;18.65;;;77.20;2227.20;;;;;;5071294;28;20103;-73
2022/03/01 06:20:09;;;;;;;27.65;17.98;;;77.20;2227.20;;;;;;5070966;28;20029;-74
2022/03/01 06:22:36;;;;;;;24.10;14.70;;;77.20;2227.20;;;;;;5072936;28;20021;-74
2022/03/01 06:25:02;;;;;;;23.10;14.85;;;77.20;2227.20;;;;;;5084159;28;20047;-73
2022/03/01 06:27:27;;;;;;;20.38;11.85;;;77.40;2176.00;;;;;;5058058;28;20029;-74
2022/03/01 06:29:53;;;;;;;18.77;11.68;;;77.40;2227.20;;;;;;5052122;28;20075;-73
2022/03/01 06:32:20;;;;;;;17.77;11.18;;;77.40;2227.20;;;;;;5056467;28;20083;-73
2022/03/01 06:34:45;;;;;;;15.88;10.57;;;77.50;2227.20;;;;;;5053715;28;20041;-74
2022/03/01 06:37:13;;;;;;;18.33;10.52;;;77.60;2227.20;;;;;;5054692;28;20076;-74
2022/03/01 06:39:44;;;;;;;18.02;10.77;;;77.70;2227.20;;;;;;5064542;28;20083;-74
2022/03/01 06:42:11;;;;;;;13.23;8.45;;;77.70;2227.20;;;;;;5068843;28;20484;-74
2022/03/01 06:44:37;;;;;;;18.33;9.98;;;77.70;2227.20;;;;;;5072786;28;20116;-73
2022/03/01 06:47:04;;;;;;;21.70;10.70;;;77.70;2227.20;;;;;;5066362;28;20074;-74
2022/03/01 06:49:30;;;;;;;14.30;9.82;;;102.40;2227.20;;;;;;5065884;28;20545;-74
2022/03/01 06:51:56;;;;;;;20.92;10.35;;;102.40;2227.20;;;;;;5072476;28;20036;-74
2022/03/01 06:54:25;;;;;;;22.45;11.20;;;102.60;2227.20;;;;;;5073079;28;20082;-74
2022/03/01 06:56:53;;;;;;;27.48;10.40;;;102.50;2227.20;;;;;;5074327;28;20029;-74
2022/03/01 06:59:19;;;;;;;17.88;10.07;;;102.50;2227.20;;;;;;5073904;28;20044;-75
2022/03/01 07:01:45;;;;;;;21.60;11.65;;;102.50;2227.20;;;;;;5073840;28;20059;-74
2022/03/01 07:04:10;;;;;;;24.27;10.65;;;102.60;2227.20;;;;;;5074246;28;20029;-75
2022/03/01 07:06:36;;;;;;;23.77;12.38;;;102.50;2227.20;;;;;;5072614;28;20395;-75
2022/03/01 07:09:04;;;;;;;21.63;11.75;;;102.60;2227.20;;;;;;5072114;28;20024;-74
2022/03/01 07:11:30;;;;;;;12.43;9.15;;;102.60;2227.20;;;;;;5070979;28;20025;-74
2022/03/01 07:13:56;;;;;;;21.52;10.93;;;102.70;2227.20;;;;;;5073351;28;20356;-75
2022/03/01 07:16:22;;;;;;;18.92;8.48;;;102.90;2227.20;;;;;;5063902;28;20045;-75
2022/03/01 07:18:47;;;;;;;30.35;11.52;;;103.00;2227.20;;;;;;5063740;28;20040;-74
2022/03/01 07:21:16;;;;;;;24.48;11.50;;;103.10;2227.20;;;;;;5072191;28;20428;-74
2022/03/01 07:23:42;;;;;;;18.55;11.93;;;103.10;2227.20;;;;;;5067950;28;20131;-75
2022/03/01 07:26:08;;;;;;;23.60;10.95;;;103.10;2227.20;;;;;;5068325;28;20598;-74
2022/03/01 07:28:34;;;;;;;14.82;10.18;;;103.20;2227.20;;;;;;5067365;28;20490;-74
2022/03/01 07:31:06;;;;;;;18.95;8.95;;;103.10;2227.20;;;;;;5062617;28;20476;-75
2022/03/01 07:33:31;;;;;;;23.73;11.82;;;103.10;2227.20;;;;;;5062651;28;20024;-73
2022/03/01 07:35:57;;;;;;;18.73;10.38;;;103.10;2227.20;;;;;;5066602;28;20036;-76
2022/03/01 07:38:23;;;;;;;22.98;10.93;;;103.20;2227.20;;;;;;5062008;28;20135;-75
2022/03/01 07:40:48;;;;;;;10.73;7.28;;;103.20;2227.20;;;;;;5066672;28;20036;-75
2022/03/01 07:43:14;;;;;;;10.77;7.10;;;103.10;2227.20;;;;;;5066124;28;20062;-75
2022/03/01 07:45:40;;;;;;;17.92;8.43;;;103.10;2227.20;;;;;;5082202;28;20020;-75
2022/03/01 07:48:06;;;;;;;17.08;10.20;;;103.20;2227.20;;;;;;5065440;28;20028;-75
2022/03/01 07:50:34;;;;;;;16.65;10.07;;;103.20;2227.20;;;;;;5065445;28;20017;-75
2022/03/01 07:53:00;;;;;;;16.58;9.73;;;103.10;2227.20;;;;;;5081662;28;20108;-75
2022/03/01 07:55:29;;;;;;;18.60;10.98;;;103.10;2227.20;;;;;;5063867;28;20103;-75
2022/03/01 07:57:55;;;;;;;17.40;10.88;;;103.10;2227.20;;;;;;5070810;28;20021;-74
2022/03/01 08:00:27;;;;;;;20.63;9.27;;;103.20;2227.20;;;;;;5061537;28;20115;-77
2022/03/01 08:02:59;;;;;;;16.85;10.75;;;103.30;2227.20;;;;;;5066151;28;20112;-75
2022/03/01 08:05:25;;;;;;;15.70;9.80;;;128.00;2252.80;;;;;;5084154;28;20075;-75
2022/03/01 08:07:52;;;;;;;14.38;10.15;;;128.10;2252.80;;;;;;5063482;28;20028;-75
2022/03/01 08:10:18;;;;;;;20.23;11.20;;;128.20;2252.80;;;;;;5060031;28;20079;-75
2022/03/01 08:12:44;;;;;;;18.42;11.43;;;128.10;2252.80;;;;;;5067812;28;20035;-74
2022/03/01 08:15:16;;;;;;;18.25;10.27;;;128.00;2252.80;;;;;;5058883;28;20079;-75
2022/03/01 08:17:58;;;;;;;16.77;11.05;;;103.30;2227.20;;;;;;5061158;28;20511;-75
2022/03/01 08:20:28;;;;;;;31.20;13.48;;;128.00;2252.80;;;;;;5063441;28;20860;-76
2022/03/01 08:22:57;;;;;;;19.05;11.38;;;128.10;2252.80;;;;;;5061208;28;20033;-75
2022/03/01 08:25:23;;;;;;;21.35;10.90;;;128.30;2252.80;;;;;;5076530;28;20033;-74
2022/03/01 08:27:49;;;;;;;12.77;9.52;;;128.70;2252.80;;;;;;5059162;28;20032;-74
2022/03/01 08:30:15;;;;;;;14.95;10.20;;;128.60;2252.80;;;;;;5065455;28;20058;-74
2022/03/01 08:32:41;;;;;;;19.75;11.05;;;128.60;2252.80;;;;;;5062012;28;20074;-76
2022/03/01 08:35:07;;;;;;;15.20;10.25;;;128.90;2252.80;;;;;;5065858;28;20032;-74
2022/03/01 08:37:33;;;;;;;16.85;10.07;;;153.60;2252.80;;;;;;5064531;28;20564;-74
2022/03/01 08:39:59;;;;;;;20.73;11.45;;;153.70;2252.80;;;;;;5064892;28;20034;-75
2022/03/01 08:42:24;;;;;;;17.70;9.60;;;153.90;2252.80;;;;;;5064441;28;20043;-77
2022/03/01 08:44:50;;;;;;;16.52;10.45;;;154.10;2252.80;;;;;;5063918;28;20025;-74
2022/03/01 08:47:16;;;;;;;16.05;11.05;;;154.40;2252.80;;;;;;5066045;28;20108;-77
2022/03/01 08:49:42;;;;;;;24.65;13.30;;;179.20;2252.80;;;;;;5062734;28;20044;-76
2022/03/01 08:52:08;;;;;;;25.88;14.20;;;179.20;2252.80;;;;;;5063796;28;20985;-75
2022/03/01 08:54:33;;;;;;;20.33;13.23;;;179.30;2252.80;;;;;;5062794;28;20024;-74
2022/03/01 08:56:59;;;;;;;20.27;12.82;;;179.40;2252.80;;;;;;5061401;28;20048;-74
2022/03/01 08:59:25;;;;;;;18.60;11.32;;;179.40;2252.80;;;;;;5061509;28;20685;-74
2022/03/01 09:01:51;;;;;;;15.88;11.40;;;179.80;2252.80;;;;;;5067915;28;20032;-74
2022/03/01 09:04:17;;;;;;;17.83;11.30;;;180.10;2252.80;;;;;;5068445;28;20453;-76
2022/03/01 09:06:42;;;;;;;16.05;11.10;;;205.00;2252.80;;;;;;5064140;28;20056;-75
2022/03/01 09:09:08;;;;;;;18.95;12.30;;;205.20;2252.80;;;;;;5063380;28;20020;-71
2022/03/01 09:11:34;;;;;;;17.75;10.40;;;205.20;2252.80;;;;;;5062607;28;20495;-71
2022/03/01 09:14:03;;;;;;;19.95;10.95;;;205.50;2252.80;;;;;;5065914;28;20027;-75
2022/03/01 09:16:28;;;;;;;22.63;11.82;;;205.60;2252.80;;;;;;5068252;28;20403;-74
2022/03/01 09:18:54;;;;;;;18.48;11.27;;;230.50;2252.80;;;;;;5065236;28;20035;-74
2022/03/01 09:21:25;;;;;;;14.73;9.32;;;230.40;2252.80;;;;;;5060101;28;20028;-73
2022/03/01 09:23:51;;;;;;;18.15;9.82;;;230.50;2252.80;;;;;;5062197;28;20036;-74
2022/03/01 09:26:17;;;;;;;14.60;9.80;;;205.70;2252.80;;;;;;5058772;28;20016;-75
2022/03/01 09:28:52;;;;;;;11.63;8.52;;;230.50;2252.80;;;;;;5063053;28;20024;-74
2022/03/01 09:31:18;;;;;;;15.25;9.55;;;230.40;2252.80;;;;;;5055959;28;20463;-74
2022/03/01 09:33:49;;;;;;;33.47;12.70;;;230.80;2252.80;;;;;;5065916;28;20032;-73
2022/03/01 09:36:15;;;;;;;12.15;7.65;;;230.90;2252.80;;;;;;5065529;28;20025;-74
2022/03/01 09:38:42;;;;;;;17.05;8.27;;;230.80;2252.80;;;;;;5077446;28;20067;-76
2022/03/01 09:41:12;;;;;;;17.77;8.95;;;230.90;2252.80;;;;;;5062021;28;20158;-75
2022/03/01 09:43:40;;;;;;;16.33;9.05;;;230.70;2252.80;;;;;;5066497;28;20036;-75
2022/03/01 09:46:07;;;;;;;26.48;12.55;;;230.60;2252.80;;;;;;5061866;28;20582;-76
2022/03/01 09:48:34;;;;;;;15.95;8.55;;;230.40;2252.80;;;;;;5059793;28;20116;-75
2022/03/01 09:51:05;;;;;;;19.52;9.68;;;230.50;2252.80;;;;;;5065086;28;20047;-76
2022/03/01 09:53:31;;;;;;;9.77;6.55;;;205.70;2252.80;;;;;;5058667;28;20033;-75
2022/03/01 09:55:59;;;;;;;12.50;7.25;;;205.50;2252.80;;;;;;5065400;28;20032;-75
2022/03/01 09:58:26;;;;;;;17.33;7.90;;;205.40;2252.80;;;;;;5061199;28;20081;-77
2022/03/01 10:00:52;;;;;;;14.65;7.82;;;205.60;2252.80;;;;;;5059485;28;20139;-76
2022/03/01 10:03:22;;;;;;;12.35;7.50;;;230.40;2252.80;;;;;;5065298;28;20024;-75
2022/03/01 10:05:47;;;;;;;9.35;7.45;;;230.50;2252.80;;;;;;5065194;28;20051;-76
2022/03/01 10:08:16;;;;;;;14.20;7.75;;;230.70;2252.80;;;;;;5064397;28;20060;-76
2022/03/01 10:10:51;;;;;;;15.10;7.30;;;230.90;2252.80;;;;;;5063574;28;20017;-76
2022/03/01 10:13:25;;;;;;;12.75;6.50;;;231.20;2252.80;;;;;;5062064;28;20048;-76
2022/03/01 10:16:13;;;;;;;16.92;8.13;;;231.30;2252.80;;;;;;5065203;28;20025;-75
2022/03/01 10:18:48;;;;;;;15.93;7.63;;;256.10;2252.80;;;;;;5056705;28;20070;-75
2022/03/01 10:21:14;;;;;;;15.73;6.22;;;256.70;2252.80;;;;;;5050184;28;20442;-74
2022/03/01 10:23:47;;;;;;;16.50;7.20;;;281.90;2278.40;;;;;;5064215;28;20025;-75
2022/03/01 10:26:37;;;;;;;8.80;5.53;;;282.10;2278.40;;;;;;5059953;28;20361;-75
2022/03/01 10:29:06;;;;;;;8.82;5.55;;;282.20;2278.40;;;;;;5068163;28;20020;-75
2022/03/01 10:31:35;;;;;;;9.43;5.03;;;282.00;2278.40;;;;;;5069287;28;20107;-75
2022/03/01 10:34:07;;;;;;;8.15;4.88;;;281.80;2278.40;;;;;;5062236;28;20082;-75
2022/03/01 10:36:40;;;;;;;12.55;8.02;;;256.70;2252.80;;;;;;5068348;28;20525;-75
2022/03/01 10:39:13;;;;;;;13.68;6.90;;;256.70;2252.80;;;;;;5051556;28;20040;-74
2022/03/01 10:41:41;;;;;;;12.52;7.45;;;256.80;2252.80;;;;;;5050085;28;20021;-76
2022/03/01 10:44:28;;;;;;;9.68;6.70;;;256.70;2252.80;;;;;;5060064;28;20024;-74
2022/03/01 10:46:59;;;;;;;22.27;8.65;;;256.50;2252.80;;;;;;5052842;28;20037;-75
2022/03/01 10:49:35;;;;;;;9.10;5.68;;;256.50;2252.80;;;;;;5050222;28;20025;-74
2022/03/01 10:52:08;;;;;;;12.85;6.30;;;256.30;2252.80;;;;;;5052167;28;20017;-74
2022/03/01 10:54:42;;;;;;;9.65;5.90;;;256.20;2252.80;;;;;;5069968;28;20086;-74
2022/03/01 10:57:10;;;;;;;17.17;7.00;;;231.30;2252.80;;;;;;5060373;28;20037;-75
2022/03/01 10:59:38;;;;;;;9.40;5.65;;;256.10;2252.80;;;;;;5070176;28;20046;-75
2022/03/01 11:02:07;;;;;;;10.68;6.30;;;256.30;2252.80;;;;;;5068813;28;20052;-74
2022/03/01 11:04:34;;;;;;;9.23;6.25;;;256.70;2022.40;;;;;;5064969;28;20024;-75
2022/03/01 11:07:05;;;;;;;14.32;7.10;;;281.90;1868.80;;;;;;5057051;28;20036;-74
2022/03/01 11:09:32;;;;;;;6.68;5.28;;;282.20;1817.60;;;;;;5064592;28;20027;-74
2022/03/01 11:12:00;;;;;;;11.18;5.53;;;281.80;1792.00;;;;;;5059614;28;20017;-75
2022/03/01 11:14:54;;;;;;;18.30;6.22;;;281.90;1740.80;;;;;;5059913;28;20024;-74
2022/03/01 11:17:47;;;;;;;9.98;4.75;;;282.20;1740.80;;;;;;5068171;28;20021;-74
2022/03/01 11:20:18;;;;;;;12.63;8.90;;;281.60;1740.80;;;;;;5066168;28;20028;-74
2022/03/01 11:22:54;;;;;;;15.80;9.30;;;281.90;1689.60;;;;;;5066358;28;20066;-74
2022/03/01 11:25:23;;;;;;;12.90;6.78;;;282.00;1689.60;;;;;;5061305;28;20036;-74
2022/03/01 11:27:51;;;;;;;13.93;6.97;;;281.90;1715.20;;;;;;5064183;28;20037;-74
2022/03/01 11:30:24;;;;;;;9.65;6.68;;;281.70;1740.80;;;;;;5063833;28;20150;-75
2022/03/01 11:32:58;;;;;;;12.30;6.13;;;282.10;1740.80;;;;;;5078328;28;20035;-74
2022/03/01 11:35:32;;;;;;;13.45;4.85;;;282.20;1715.20;;;;;;5061566;28;20032;-74
2022/03/01 11:38:18;;;;;;;12.60;5.90;;;282.20;1715.20;;;;;;5083505;28;20044;-74
2022/03/01 11:40:52;;;;;;;9.38;5.10;;;282.20;1664.00;;;;;;5061625;28;20032;-73
2022/03/01 11:43:21;;;;;;;10.20;6.30;;;282.10;1664.00;;;;;;5060818;28;20029;-74
2022/03/01 11:45:56;;;;;;;12.60;5.35;;;282.50;1638.40;;;;;;5062907;28;20048;-75
2022/03/01 11:48:24;;;;;;;10.63;4.82;;;282.10;1715.20;;;;;;5063251;28;20018;-74
2022/03/01 11:50:59;;;;;;;8.52;5.88;;;282.50;1587.20;;;;;;5068949;28;20021;-74
2022/03/01 11:53:29;;;;;;;5.93;4.35;;;333.50;1510.40;;;;;;5063829;28;20090;-74
2022/03/01 11:55:59;;;;;;;7.05;5.03;;;384.20;1382.40;;;;;;5063698;28;20017;-74
2022/03/01 11:58:29;;;;;;;12.43;7.10;;;409.60;1356.80;;;;;;5070292;28;20116;-74
2022/03/01 12:00:56;;;;;;;9.07;5.05;;;410.30;1305.60;;;;;;5071808;28;20070;-74
2022/03/01 12:03:26;;;;;;;14.65;5.55;;;435.20;1228.80;;;;;;5063087;28;20025;-74
2022/03/01 12:05:53;;;;;;;6.90;4.72;;;384.70;1280.00;;;;;;5058499;28;20480;-74
2022/03/01 12:08:20;;;;;;;5.22;4.00;;;384.60;1305.60;;;;;;5069470;28;20132;-74
2022/03/01 12:11:04;;;;;;;8.95;5.55;;;384.30;1305.60;;;;;;5061214;28;20033;-74
2022/03/01 12:13:50;;;;;;;7.10;5.43;;;384.30;1305.60;;;;;;5065409;28;20063;-74